Zum Inhalt springen

Flugplatzwetter

EDAZ 020705Z AUTO 23008KT 9999 NCD 13/10 Q1013 RMK TL70=

4-Tage Wetter

Sonnenauf- und untergangszeiten

Im Folgenden finden Sie eine Übersicht der Sonnenauf- und untergangszeiten der nächsten 14 Tage.

Alle Zeiten local.

Datum Sonnenaufgang
01.10.2022 07:06 18:47
02.10.2022 07:08 18:44
03.10.2022 07:09 18:42
04.10.2022 07:11 18:40
05.10.2022 07:13 18:37
06.10.2022 07:15 18:35
07.10.2022 07:16 18:33
08.10.2022 07:18 18:31
09.10.2022 07:20 18:28
10.10.2022 07:21 18:26
11.10.2022 07:23 18:24
12.10.2022 07:25 18:22
13.10.2022 07:27 18:19
14.10.2022 07:28 18:17
15.10.2022 07:30 18:15
16.10.2022 07:32 18:13